Time;durP1;ratioP1;P1;durP2;ratioP2;P2;SDS_P1;SDS_P2;PMS_P1;PMS_P2;Temp;Humidity;BMP_temperature;BMP_pressure;BME280_temperature;BME280_humidity;BME280_pressure;Samples;Min_cycle;Max_cycle;Signal;HPM_P1;HPM_P2
2023/01/16 00:01:39;;;;;;;0.00;0.00;;;5.40;90.60;;;;;;5000465;28;20101;-76
2023/01/16 00:04:05;;;;;;;0.00;0.00;;;5.30;90.60;;;;;;5005868;28;20120;-77
2023/01/16 00:06:30;;;;;;;0.00;0.00;;;5.40;90.60;;;;;;4993700;28;20517;-76
2023/01/16 00:08:56;;;;;;;0.00;0.00;;;5.40;90.60;;;;;;5025016;28;20050;-77
2023/01/16 00:11:21;;;;;;;0.00;0.00;;;5.40;90.60;;;;;;5014812;28;20591;-76
2023/01/16 00:13:47;;;;;;;0.75;0.75;;;5.40;90.50;;;;;;5014055;28;20038;-76
2023/01/16 00:16:13;;;;;;;0.00;0.00;;;5.50;90.40;;;;;;5007052;28;20104;-76
2023/01/16 00:18:38;;;;;;;0.00;0.00;;;5.50;90.50;;;;;;5021664;28;20049;-77
2023/01/16 00:21:04;;;;;;;0.00;0.00;;;5.40;90.40;;;;;;5018779;28;20041;-77
2023/01/16 00:23:30;;;;;;;0.00;0.00;;;5.40;90.50;;;;;;4996217;28;20089;-76
2023/01/16 00:25:55;;;;;;;0.03;0.03;;;5.40;90.40;;;;;;4979764;28;20576;-76
2023/01/16 00:28:21;;;;;;;0.00;0.00;;;5.50;90.30;;;;;;4999412;28;20125;-76
2023/01/16 00:30:46;;;;;;;0.00;0.00;;;5.40;90.30;;;;;;5023745;28;20461;-76
2023/01/16 00:33:12;;;;;;;0.00;0.00;;;5.40;90.30;;;;;;4994514;28;20050;-76
2023/01/16 00:35:38;;;;;;;0.00;0.00;;;5.40;90.30;;;;;;4998531;28;20549;-76
2023/01/16 00:38:04;;;;;;;0.00;0.00;;;5.40;90.30;;;;;;5018348;28;20048;-76
2023/01/16 00:40:30;;;;;;;0.38;0.38;;;5.40;90.20;;;;;;5025285;28;20708;-76
2023/01/16 00:42:55;;;;;;;0.00;0.00;;;5.30;90.20;;;;;;4983755;28;20058;-76
2023/01/16 00:45:21;;;;;;;0.00;0.00;;;5.30;90.20;;;;;;4993512;28;20103;-76
2023/01/16 00:47:47;;;;;;;0.10;0.10;;;5.30;90.20;;;;;;5013976;28;20038;-76
2023/01/16 00:50:13;;;;;;;0.00;0.00;;;5.30;90.20;;;;;;4991354;28;20046;-77
2023/01/16 00:52:38;;;;;;;0.00;0.00;;;5.30;90.20;;;;;;4994582;28;20394;-76
2023/01/16 00:55:04;;;;;;;0.00;0.00;;;5.30;90.20;;;;;;5002145;28;20053;-77
2023/01/16 00:57:30;;;;;;;0.00;0.00;;;5.30;90.30;;;;;;5028139;28;20565;-77
2023/01/16 00:59:56;;;;;;;0.00;0.00;;;5.30;90.30;;;;;;4990145;28;20125;-77
2023/01/16 01:02:21;;;;;;;0.22;0.22;;;5.30;90.20;;;;;;5004905;28;20542;-77
2023/01/16 01:04:48;;;;;;;0.00;0.00;;;5.30;90.20;;;;;;5011419;28;20046;-76
2023/01/16 01:07:13;;;;;;;0.13;0.13;;;5.20;90.20;;;;;;4998680;28;20161;-77
2023/01/16 01:09:39;;;;;;;0.00;0.00;;;5.20;90.20;;;;;;4976992;28;20379;-77
2023/01/16 01:12:05;;;;;;;0.00;0.00;;;5.30;90.20;;;;;;4995652;28;20069;-77
2023/01/16 01:14:30;;;;;;;0.00;0.00;;;5.20;90.20;;;;;;5003232;28;20037;-77
2023/01/16 01:16:56;;;;;;;0.00;0.00;;;5.20;90.30;;;;;;4992298;28;20050;-77
2023/01/16 01:19:21;;;;;;;0.00;0.00;;;5.20;90.30;;;;;;5010662;28;20133;-77
2023/01/16 01:21:47;;;;;;;0.00;0.00;;;5.20;90.40;;;;;;4995258;28;20046;-77
2023/01/16 01:24:13;;;;;;;0.00;0.00;;;5.20;90.40;;;;;;5004661;28;20124;-77
2023/01/16 01:26:38;;;;;;;0.00;0.00;;;5.20;90.40;;;;;;5003021;28;20486;-76
2023/01/16 01:29:04;;;;;;;0.10;0.10;;;5.20;90.40;;;;;;4995183;28;20115;-76
2023/01/16 01:31:30;;;;;;;0.00;0.00;;;5.30;90.40;;;;;;4997454;28;20157;-77
2023/01/16 01:33:55;;;;;;;0.10;0.10;;;5.30;90.40;;;;;;4993992;28;20395;-77
2023/01/16 01:36:21;;;;;;;0.00;0.00;;;5.30;90.20;;;;;;5011085;28;20041;-77
2023/01/16 01:38:49;;;;;;;0.00;0.00;;;5.30;90.40;;;;;;5006153;28;20557;-77
2023/01/16 01:41:15;;;;;;;0.00;0.00;;;5.30;90.30;;;;;;4993047;28;20103;-77
2023/01/16 01:43:47;;;;;;;0.00;0.00;;;5.30;90.40;;;;;;4994106;28;20088;-77
2023/01/16 01:46:40;;;;;;;0.45;0.45;;;5.30;90.40;;;;;;5016699;28;20060;-77
2023/01/16 01:49:28;;;;;;;0.20;0.20;;;5.30;90.40;;;;;;5000605;28;20053;-77
2023/01/16 01:51:57;;;;;;;0.00;0.00;;;5.20;90.40;;;;;;5013677;28;20521;-77
2023/01/16 01:54:28;;;;;;;0.05;0.05;;;5.20;90.40;;;;;;5006303;28;20100;-76
2023/01/16 01:56:58;;;;;;;0.00;0.00;;;5.30;90.40;;;;;;5005191;28;20058;-77
2023/01/16 01:59:28;;;;;;;0.00;0.00;;;5.30;90.40;;;;;;5017008;28;20065;-76
2023/01/16 02:01:55;;;;;;;0.00;0.00;;;5.20;90.30;;;;;;4981300;28;20093;-77
2023/01/16 02:04:25;;;;;;;0.00;0.00;;;5.20;90.30;;;;;;4978071;28;20054;-76
2023/01/16 02:06:57;;;;;;;0.00;0.00;;;5.20;90.30;;;;;;4984790;28;20506;-77
2023/01/16 02:09:25;;;;;;;0.10;0.10;;;5.20;90.20;;;;;;4964218;28;20563;-77
2023/01/16 02:11:57;;;;;;;0.00;0.00;;;5.20;90.20;;;;;;4968872;28;20049;-77
2023/01/16 02:14:26;;;;;;;0.00;0.00;;;5.20;90.10;;;;;;4967615;28;20096;-76
2023/01/16 02:20:16;;;;;;;0.00;0.00;;;5.20;90.20;;;;;;4981780;28;20607;-77
2023/01/16 02:22:48;;;;;;;0.00;0.00;;;5.10;90.10;;;;;;4969658;28;20490;-76
2023/01/16 02:25:35;;;;;;;0.08;0.08;;;5.00;90.20;;;;;;4968719;28;20075;-77
2023/01/16 02:28:31;;;;;;;0.00;0.00;;;5.00;90.10;;;;;;4967514;28;20389;-77
2023/01/16 02:31:28;;;;;;;0.00;0.00;;;4.90;90.10;;;;;;4967947;28;20412;-77
2023/01/16 02:34:10;;;;;;;0.00;0.00;;;4.90;90.10;;;;;;4968129;28;20062;-77
2023/01/16 02:37:13;;;;;;;0.00;0.00;;;4.90;90.10;;;;;;4970897;28;20051;-77
2023/01/16 02:39:45;;;;;;;0.00;0.00;;;4.90;90.10;;;;;;4966803;28;20059;-77
2023/01/16 02:42:42;;;;;;;0.00;0.00;;;4.90;90.10;;;;;;4970421;28;20488;-76
2023/01/16 02:45:25;;;;;;;0.00;0.00;;;4.90;90.20;;;;;;4969027;28;20055;-77
2023/01/16 02:47:56;;;;;;;0.00;0.00;;;4.90;90.20;;;;;;4966764;28;20051;-77
2023/01/16 02:50:31;;;;;;;0.00;0.00;;;4.90;90.30;;;;;;4968230;28;20369;-77
2023/01/16 02:53:12;;;;;;;0.00;0.00;;;4.90;90.30;;;;;;4966662;28;20042;-77
2023/01/16 02:55:47;;;;;;;0.57;0.57;;;4.90;90.40;;;;;;4983315;28;20039;-76
2023/01/16 02:58:15;;;;;;;0.00;0.00;;;4.90;90.30;;;;;;4966153;28;20102;-76
2023/01/16 03:00:52;;;;;;;0.00;0.00;;;4.90;90.40;;;;;;4967633;28;20050;-77
2023/01/16 03:03:50;;;;;;;0.10;0.10;;;4.90;90.50;;;;;;4984743;28;20058;-77
2023/01/16 03:07:17;;;;;;;0.00;0.00;;;4.80;90.60;;;;;;4972657;28;20047;-77
2023/01/16 03:09:58;;;;;;;0.00;0.00;;;4.70;90.50;;;;;;4908376;29;20845;-77
2023/01/16 03:12:44;;;;;;;0.08;0.08;;;4.70;90.50;;;;;;4969186;28;20122;-77
2023/01/16 03:15:21;;;;;;;0.00;0.00;;;4.70;90.50;;;;;;4964643;28;20500;-76
2023/01/16 03:18:17;;;;;;;0.00;0.00;;;4.60;90.20;;;;;;4967328;28;20587;-76
2023/01/16 03:21:23;;;;;;;0.00;0.00;;;4.60;90.30;;;;;;4966263;28;20047;-76
2023/01/16 03:23:59;;;;;;;0.00;0.00;;;4.60;90.40;;;;;;4954723;28;20500;-76
2023/01/16 03:26:48;;;;;;;0.00;0.00;;;4.50;90.40;;;;;;4971113;28;20043;-77
2023/01/16 03:29:38;;;;;;;0.03;0.03;;;4.50;90.50;;;;;;4972977;28;20055;-76
2023/01/16 03:32:29;;;;;;;0.00;0.00;;;4.50;90.50;;;;;;4970534;28;20097;-76
2023/01/16 03:35:08;;;;;;;0.55;0.45;;;4.50;90.50;;;;;;4972259;28;20061;-76
2023/01/16 03:37:44;;;;;;;0.00;0.00;;;4.60;90.70;;;;;;4973041;28;20047;-76
2023/01/16 03:40:12;;;;;;;0.00;0.00;;;4.60;90.70;;;;;;4972564;28;20047;-76
2023/01/16 03:42:45;;;;;;;0.00;0.00;;;4.60;90.70;;;;;;4971640;28;20069;-76
2023/01/16 03:45:25;;;;;;;0.00;0.00;;;4.70;90.70;;;;;;4986259;28;20050;-76
2023/01/16 03:48:10;;;;;;;0.00;0.00;;;4.70;90.70;;;;;;4968728;28;20038;-77
2023/01/16 03:50:36;;;;;;;0.00;0.00;;;4.70;90.80;;;;;;4986721;28;20046;-77
2023/01/16 03:53:07;;;;;;;0.00;0.00;;;4.70;90.90;;;;;;4974764;28;20144;-76
2023/01/16 03:56:05;;;;;;;0.00;0.00;;;4.70;90.90;;;;;;4970763;28;20042;-77
2023/01/16 03:58:36;;;;;;;0.00;0.00;;;4.70;90.90;;;;;;4971752;28;20073;-76
2023/01/16 04:01:14;;;;;;;0.10;0.10;;;4.80;90.90;;;;;;4970726;28;20055;-76
2023/01/16 04:04:22;;;;;;;0.00;0.00;;;4.80;90.90;;;;;;4969566;28;20133;-76
2023/01/16 04:07:04;;;;;;;0.00;0.00;;;4.80;90.90;;;;;;4983780;28;20042;-76
2023/01/16 04:09:55;;;;;;;0.00;0.00;;;4.90;91.00;;;;;;4984717;28;20043;-76
2023/01/16 04:12:27;;;;;;;0.00;0.00;;;4.90;91.00;;;;;;4966536;28;20065;-76
2023/01/16 04:15:00;;;;;;;0.00;0.00;;;4.90;90.90;;;;;;4971995;28;20125;-76
2023/01/16 04:17:27;;;;;;;0.00;0.00;;;4.90;91.00;;;;;;4985902;28;20078;-76
2023/01/16 04:19:53;;;;;;;0.00;0.00;;;4.90;91.00;;;;;;4970240;28;20061;-76
2023/01/16 04:22:21;;;;;;;16.90;2.90;;;5.00;91.10;;;;;;4970259;28;20051;-76
2023/01/16 04:24:49;;;;;;;0.00;0.00;;;4.90;91.00;;;;;;4971778;28;20117;-77
2023/01/16 04:27:15;;;;;;;0.57;0.47;;;4.90;90.90;;;;;;4971072;28;20402;-76
2023/01/16 04:29:41;;;;;;;0.00;0.00;;;4.90;91.00;;;;;;4985378;28;20630;-76
2023/01/16 04:32:06;;;;;;;0.00;0.00;;;4.90;91.00;;;;;;4970419;28;20047;-76
2023/01/16 04:34:32;;;;;;;0.20;0.20;;;4.90;91.00;;;;;;4985549;28;20039;-76
2023/01/16 04:36:57;;;;;;;0.00;0.00;;;4.90;90.90;;;;;;4971312;28;20101;-76
2023/01/16 04:39:23;;;;;;;0.00;0.00;;;4.90;90.90;;;;;;4971708;28;20046;-76
2023/01/16 04:41:50;;;;;;;0.00;0.00;;;4.90;90.90;;;;;;4971203;28;20074;-76
2023/01/16 04:44:16;;;;;;;0.00;0.00;;;5.00;90.80;;;;;;4972839;28;20050;-76
2023/01/16 04:46:42;;;;;;;0.00;0.00;;;5.00;90.80;;;;;;4971199;28;20043;-76
2023/01/16 04:49:09;;;;;;;0.05;0.05;;;5.00;90.80;;;;;;4967299;28;20443;-76
2023/01/16 04:51:38;;;;;;;0.00;0.00;;;5.00;90.90;;;;;;4942361;28;20047;-76
2023/01/16 04:54:05;;;;;;;0.00;0.00;;;5.00;90.80;;;;;;4970699;28;20689;-74
2023/01/16 04:56:31;;;;;;;3.88;0.85;;;5.10;90.80;;;;;;4979589;28;20411;-74
2023/01/16 04:58:57;;;;;;;0.00;0.00;;;5.10;90.80;;;;;;4970213;28;20038;-74
2023/01/16 05:01:23;;;;;;;0.00;0.00;;;5.10;90.70;;;;;;4980401;28;20066;-76
2023/01/16 05:03:49;;;;;;;0.00;0.00;;;5.10;90.70;;;;;;4987406;28;20054;-76
2023/01/16 05:06:14;;;;;;;0.00;0.00;;;5.10;90.70;;;;;;4967655;28;20046;-76
2023/01/16 05:08:40;;;;;;;0.00;0.00;;;5.10;90.60;;;;;;4976436;28;20034;-76
2023/01/16 05:11:06;;;;;;;0.00;0.00;;;5.00;90.60;;;;;;4974974;28;20047;-76
2023/01/16 05:13:31;;;;;;;0.20;0.20;;;5.00;90.50;;;;;;4982249;28;20483;-76
2023/01/16 05:15:57;;;;;;;0.00;0.00;;;5.00;90.40;;;;;;4980983;28;20495;-76
2023/01/16 05:18:23;;;;;;;0.00;0.00;;;4.90;90.50;;;;;;4974898;28;20043;-76
2023/01/16 05:20:49;;;;;;;0.00;0.00;;;5.00;90.40;;;;;;4986203;28;20070;-76
2023/01/16 05:23:14;;;;;;;0.00;0.00;;;4.90;90.40;;;;;;4972060;28;20525;-76
2023/01/16 05:25:40;;;;;;;0.00;0.00;;;4.90;90.30;;;;;;4969685;28;20553;-76
2023/01/16 05:28:06;;;;;;;0.00;0.00;;;4.80;90.20;;;;;;4985393;28;20903;-76
2023/01/16 05:30:31;;;;;;;0.00;0.00;;;4.80;90.20;;;;;;4970095;28;20043;-76
2023/01/16 05:32:57;;;;;;;0.52;0.52;;;4.80;90.10;;;;;;4980527;28;20180;-76
2023/01/16 05:35:23;;;;;;;0.00;0.00;;;4.80;90.00;;;;;;4975975;28;20049;-76
2023/01/16 05:37:48;;;;;;;2.70;0.80;;;4.70;90.00;;;;;;4982202;28;20069;-74
2023/01/16 05:40:14;;;;;;;0.00;0.00;;;4.70;89.90;;;;;;4969234;28;20411;-77
2023/01/16 05:45:20;;;;;;;0.00;0.00;;;4.60;89.90;;;;;;5008125;28;20042;-69
2023/01/16 05:47:46;;;;;;;0.05;0.05;;;4.60;89.80;;;;;;5010161;28;20046;-69
2023/01/16 05:50:11;;;;;;;0.00;0.00;;;4.60;90.00;;;;;;5009607;28;20080;-69
2023/01/16 05:52:37;;;;;;;1.10;1.10;;;4.60;90.10;;;;;;5010707;28;20046;-69
2023/01/16 05:55:03;;;;;;;0.00;0.00;;;4.50;90.10;;;;;;4992948;28;20081;-69
2023/01/16 05:57:29;;;;;;;0.00;0.00;;;4.50;90.50;;;;;;5006374;28;20100;-69
2023/01/16 05:59:55;;;;;;;0.00;0.00;;;4.40;90.70;;;;;;5007820;28;20085;-68
2023/01/16 06:02:21;;;;;;;0.00;0.00;;;4.40;91.00;;;;;;5009452;28;20549;-69
2023/01/16 06:04:47;;;;;;;1.45;0.98;;;4.40;91.10;;;;;;5012762;28;20095;-68
2023/01/16 06:07:13;;;;;;;0.00;0.00;;;4.40;91.10;;;;;;4994627;28;20050;-69
2023/01/16 06:12:07;;;;;;;0.00;0.00;;;4.50;91.00;;;;;;5023245;23;20109;-68
2023/01/16 06:14:33;;;;;;;0.00;0.00;;;4.40;91.00;;;;;;4969758;28;20448;-69
2023/01/16 06:16:59;;;;;;;0.08;0.08;;;4.40;91.00;;;;;;4986542;28;20047;-67
2023/01/16 06:19:24;;;;;;;0.10;0.10;;;4.40;91.00;;;;;;4953827;28;20054;-68
2023/01/16 06:21:50;;;;;;;0.80;0.80;;;4.40;91.00;;;;;;4971203;28;20043;-68
2023/01/16 06:24:16;;;;;;;0.10;0.10;;;4.40;90.90;;;;;;4953874;28;20054;-67
2023/01/16 06:26:41;;;;;;;0.00;0.00;;;4.40;91.00;;;;;;4969941;28;20050;-68
2023/01/16 06:29:09;;;;;;;0.10;0.10;;;4.40;90.70;;;;;;4971873;28;20416;-68
2023/01/16 06:31:35;;;;;;;0.10;0.10;;;4.40;90.90;;;;;;4969648;28;20039;-68
2023/01/16 06:34:00;;;;;;;0.00;0.00;;;4.40;90.90;;;;;;4964200;28;20047;-68
2023/01/16 06:36:26;;;;;;;0.00;0.00;;;4.40;90.80;;;;;;4970197;28;20057;-68
2023/01/16 06:38:51;;;;;;;0.00;0.00;;;4.40;90.80;;;;;;4953601;28;20035;-68
2023/01/16 06:41:17;;;;;;;0.00;0.00;;;4.40;90.90;;;;;;4969916;28;20046;-68
2023/01/16 06:43:43;;;;;;;0.82;0.82;;;4.40;90.80;;;;;;4969419;28;20043;-67
2023/01/16 06:46:08;;;;;;;0.00;0.00;;;4.40;90.80;;;;;;4969647;28;20054;-67
2023/01/16 06:48:34;;;;;;;0.00;0.00;;;4.40;90.90;;;;;;4970759;28;20047;-67
2023/01/16 06:51:00;;;;;;;0.08;0.08;;;4.40;90.80;;;;;;4968955;28;20054;-67
2023/01/16 06:53:26;;;;;;;0.35;0.35;;;4.30;90.70;;;;;;5015695;23;20072;-67
2023/01/16 06:55:52;;;;;;;0.00;0.00;;;4.40;90.80;;;;;;4952509;28;20204;-67
2023/01/16 06:58:18;;;;;;;0.00;0.00;;;4.40;90.80;;;;;;4947645;28;20481;-67
2023/01/16 07:00:44;;;;;;;0.15;0.15;;;4.40;90.80;;;;;;4946541;28;20370;-67
2023/01/16 07:03:10;;;;;;;0.00;0.00;;;4.40;90.90;;;;;;4949769;28;20051;-67
2023/01/16 07:05:36;;;;;;;0.00;0.00;;;4.40;90.90;;;;;;4951881;28;20346;-67
2023/01/16 07:08:02;;;;;;;0.00;0.00;;;4.50;90.90;;;;;;4928227;29;20574;-70
2023/01/16 07:10:28;;;;;;;0.10;0.10;;;4.50;90.90;;;;;;4925459;29;20051;-69
2023/01/16 07:12:54;;;;;;;0.00;0.00;;;4.50;90.90;;;;;;4942093;28;20075;-69
2023/01/16 07:23:45;;;;;;;0.10;0.10;;;4.50;91.10;;;;;;4934979;29;20059;-68
2023/01/16 07:26:13;;;;;;;0.17;0.17;;;4.60;91.00;;;;;;4967589;28;20248;-68
2023/01/16 07:28:39;;;;;;;0.65;0.65;;;4.60;90.90;;;;;;4955247;29;20062;-68
2023/01/16 07:31:06;;;;;;;0.00;0.00;;;4.60;90.80;;;;;;4938715;29;20055;-68
2023/01/16 07:33:33;;;;;;;0.00;0.00;;;4.50;90.70;;;;;;4942678;29;20056;-68
2023/01/16 07:35:59;;;;;;;0.00;0.00;;;4.60;90.80;;;;;;4937239;29;20051;-68
2023/01/16 07:38:24;;;;;;;0.40;0.40;;;4.50;90.70;;;;;;4945612;28;20050;-68
2023/01/16 07:40:50;;;;;;;0.00;0.00;;;4.50;90.60;;;;;;4952700;28;20036;-67
2023/01/16 07:43:16;;;;;;;0.00;0.00;;;4.80;92.40;;;;;;4919143;29;20059;-68
2023/01/16 07:45:41;;;;;;;0.00;0.00;;;5.00;91.30;;;;;;4926876;29;20055;-68
2023/01/16 07:48:07;;;;;;;0.00;0.00;;;4.90;91.00;;;;;;4935458;29;20058;-68
2023/01/16 07:50:33;;;;;;;0.00;0.00;;;4.80;90.70;;;;;;4954126;29;20047;-68
2023/01/16 07:52:58;;;;;;;0.10;0.10;;;4.70;90.60;;;;;;4946722;29;20465;-68
2023/01/16 07:55:25;;;;;;;0.08;0.08;;;4.60;90.50;;;;;;4947242;29;20561;-68
2023/01/16 07:57:51;;;;;;;0.00;0.00;;;4.60;90.50;;;;;;4944120;29;20043;-69
2023/01/16 08:00:17;;;;;;;0.00;0.00;;;4.60;90.50;;;;;;4934378;29;20580;-69
2023/01/16 08:02:42;;;;;;;0.00;0.00;;;4.60;90.60;;;;;;4946169;28;20523;-69
2023/01/16 08:05:09;;;;;;;0.00;0.00;;;4.60;90.50;;;;;;4943081;28;20058;-69
2023/01/16 08:07:35;;;;;;;0.00;0.00;;;4.60;90.50;;;;;;4950252;29;20051;-69
2023/01/16 08:10:02;;;;;;;0.00;0.00;;;4.60;90.40;;;;;;4949252;28;20488;-68
2023/01/16 08:12:27;;;;;;;0.00;0.00;;;4.50;90.40;;;;;;4950496;29;20055;-68
2023/01/16 08:14:53;;;;;;;0.00;0.00;;;4.50;90.30;;;;;;4968500;23;20069;-68
2023/01/16 08:17:18;;;;;;;0.00;0.00;;;4.50;90.40;;;;;;4988786;28;20046;-67
2023/01/16 08:19:44;;;;;;;0.00;0.00;;;4.50;90.40;;;;;;4988874;28;20042;-68
2023/01/16 08:22:10;;;;;;;0.00;0.00;;;4.50;90.40;;;;;;4971537;28;20130;-68
2023/01/16 08:24:35;;;;;;;0.10;0.10;;;4.40;90.30;;;;;;4988580;28;20061;-68
2023/01/16 08:27:01;;;;;;;0.00;0.00;;;4.50;90.40;;;;;;4973114;28;20038;-68
2023/01/16 08:29:26;;;;;;;0.10;0.10;;;4.40;90.40;;;;;;4986591;28;20121;-68
2023/01/16 08:31:52;;;;;;;0.00;0.00;;;4.40;90.40;;;;;;4990019;28;20499;-69
2023/01/16 08:34:18;;;;;;;0.00;0.00;;;4.40;90.40;;;;;;4990326;28;20097;-68
2023/01/16 08:36:44;;;;;;;0.00;0.00;;;4.60;91.40;;;;;;4990098;28;20079;-67
2023/01/16 08:39:10;;;;;;;0.00;0.00;;;4.60;90.90;;;;;;4974088;28;20495;-67
2023/01/16 08:52:43;;;;;;;0.00;0.00;;;4.60;90.60;;;;;;4972422;28;20055;-68
2023/01/16 08:55:09;;;;;;;0.00;0.00;;;4.70;90.60;;;;;;4990676;28;20121;-68
2023/01/16 08:57:35;;;;;;;0.00;0.00;;;4.70;90.50;;;;;;4990990;28;20484;-68
2023/01/16 09:00:01;;;;;;;0.00;0.00;;;4.70;90.60;;;;;;4973752;28;20506;-68
2023/01/16 09:02:27;;;;;;;0.10;0.10;;;4.80;90.50;;;;;;4972466;28;20093;-69
2023/01/16 09:04:54;;;;;;;0.00;0.00;;;4.70;90.40;;;;;;4961441;28;20050;-68
2023/01/16 09:07:20;;;;;;;0.52;0.52;;;4.70;90.50;;;;;;4988680;28;20054;-69
2023/01/16 09:09:46;;;;;;;0.00;0.00;;;4.70;90.50;;;;;;4990287;28;20034;-68
2023/01/16 09:14:57;;;;;;;0.00;0.00;;;4.80;90.50;;;;;;4979943;28;20058;-68
2023/01/16 09:17:24;;;;;;;0.00;0.00;;;4.80;90.50;;;;;;4989086;28;20051;-68
2023/01/16 09:19:50;;;;;;;0.00;0.00;;;4.70;90.60;;;;;;4955960;28;20055;-68
2023/01/16 09:22:15;;;;;;;0.00;0.00;;;4.80;90.60;;;;;;4969629;28;20448;-68
2023/01/16 09:24:41;;;;;;;0.00;0.00;;;4.80;90.70;;;;;;4986698;28;20035;-68
2023/01/16 09:27:06;;;;;;;0.00;0.00;;;4.70;90.60;;;;;;4985646;28;20562;-66
2023/01/16 09:29:32;;;;;;;0.10;0.10;;;4.80;90.60;;;;;;4989942;28;20076;-68
2023/01/16 09:31:58;;;;;;;0.00;0.00;;;4.80;90.50;;;;;;4989482;28;20124;-68
2023/01/16 09:34:24;;;;;;;0.00;0.00;;;4.80;90.60;;;;;;4990226;28;20042;-68
2023/01/16 09:36:50;;;;;;;0.10;0.10;;;4.80;90.60;;;;;;4985953;28;20049;-68
2023/01/16 09:39:16;;;;;;;0.00;0.00;;;5.00;91.30;;;;;;4990802;28;20042;-67
2023/01/16 09:44:41;;;;;;;0.00;0.00;;;5.00;91.00;;;;;;4970799;28;20566;-68
2023/01/16 09:47:08;;;;;;;0.10;0.10;;;4.90;91.00;;;;;;4953149;28;20051;-68
2023/01/16 09:50:05;;;;;;;0.00;0.00;;;4.90;91.00;;;;;;4985101;28;20125;-68
2023/01/16 09:58:36;;;;;;;0.00;0.00;;;4.90;90.90;;;;;;4989334;28;20066;-68
2023/01/16 10:01:13;;;;;;;0.00;0.00;;;4.90;90.70;;;;;;4972185;28;20464;-68
2023/01/16 10:03:42;;;;;;;0.08;0.08;;;4.90;90.70;;;;;;4989605;28;20042;-68
2023/01/16 10:06:15;;;;;;;0.08;0.08;;;4.80;90.80;;;;;;4989516;28;20631;-68
2023/01/16 10:08:53;;;;;;;0.00;0.00;;;4.80;90.80;;;;;;4989583;28;20089;-68
2023/01/16 10:11:37;;;;;;;0.00;0.00;;;4.90;90.70;;;;;;4989444;28;20610;-68
2023/01/16 10:14:37;;;;;;;0.00;0.00;;;4.90;90.70;;;;;;4989383;28;20073;-68
2023/01/16 10:17:17;;;;;;;0.00;0.00;;;4.90;90.60;;;;;;4989280;28;20586;-68
2023/01/16 10:20:21;;;;;;;0.00;0.00;;;4.90;90.70;;;;;;4989438;28;20496;-67
2023/01/16 10:23:11;;;;;;;0.00;0.00;;;4.90;90.60;;;;;;4971678;28;20055;-69
2023/01/16 10:25:46;;;;;;;0.00;0.00;;;4.90;90.60;;;;;;4973850;28;20046;-70
2023/01/16 10:28:42;;;;;;;0.00;0.00;;;4.80;90.70;;;;;;4987833;28;20038;-70
2023/01/16 10:31:33;;;;;;;0.00;0.00;;;4.80;90.60;;;;;;4955745;28;20503;-69
2023/01/16 10:34:15;;;;;;;0.00;0.00;;;4.80;90.60;;;;;;4993331;28;20114;-69
2023/01/16 10:36:46;;;;;;;0.00;0.00;;;4.70;90.60;;;;;;4993632;28;20050;-69
2023/01/16 10:39:15;;;;;;;0.00;0.00;;;4.70;90.80;;;;;;4993152;28;20070;-70
2023/01/16 10:50:22;;;;;;;0.00;0.00;;;4.60;90.90;;;;;;4991799;28;20051;-71
2023/01/16 10:52:48;;;;;;;0.00;0.00;;;4.60;90.80;;;;;;4975741;28;20034;-71
2023/01/16 10:55:15;;;;;;;0.00;0.00;;;4.60;90.80;;;;;;4975610;28;20517;-71
2023/01/16 10:57:49;;;;;;;0.10;0.10;;;4.60;90.80;;;;;;4975770;28;20047;-71
2023/01/16 11:00:37;;;;;;;0.00;0.00;;;4.50;90.90;;;;;;4993656;28;20046;-69
2023/01/16 11:03:34;;;;;;;0.00;0.00;;;4.60;90.80;;;;;;4992460;28;20047;-69
2023/01/16 11:06:24;;;;;;;0.00;0.00;;;4.50;90.80;;;;;;4993246;28;20045;-69
2023/01/16 11:09:03;;;;;;;0.00;0.00;;;4.60;90.90;;;;;;4977483;28;20046;-69
2023/01/16 11:20:33;;;;;;;0.00;0.00;;;4.50;90.70;;;;;;4975779;28;20050;-72
2023/01/16 11:23:12;;;;;;;0.00;0.00;;;4.40;90.60;;;;;;4990194;28;20050;-72
2023/01/16 11:25:37;;;;;;;0.00;0.00;;;4.40;90.70;;;;;;4985086;28;20551;-71
2023/01/16 11:28:07;;;;;;;0.00;0.00;;;4.50;90.60;;;;;;4992395;28;20185;-72
2023/01/16 11:30:38;;;;;;;0.00;0.00;;;4.40;90.50;;;;;;4973320;28;20125;-72
2023/01/16 11:33:08;;;;;;;0.00;0.00;;;4.30;90.60;;;;;;4957663;28;20499;-72
2023/01/16 11:35:36;;;;;;;0.00;0.00;;;4.30;90.80;;;;;;4973527;28;20499;-71
2023/01/16 11:38:04;;;;;;;0.00;0.00;;;4.40;90.80;;;;;;4989948;28;20046;-72
2023/01/16 11:40:35;;;;;;;0.00;0.00;;;4.40;90.80;;;;;;4991666;28;20038;-71
2023/01/16 11:46:02;;;;;;;0.00;0.00;;;4.40;90.80;;;;;;4984106;28;20090;-71
2023/01/16 11:48:36;;;;;;;0.03;0.03;;;4.40;90.80;;;;;;4971278;28;20101;-71
2023/01/16 11:51:03;;;;;;;0.00;0.00;;;4.40;90.80;;;;;;4972741;28;20420;-71
2023/01/16 11:53:31;;;;;;;0.00;0.00;;;4.40;90.70;;;;;;4988928;28;20080;-71
2023/01/16 11:56:34;;;;;;;0.00;0.00;;;4.40;90.80;;;;;;4991870;28;20085;-71
2023/01/16 11:59:25;;;;;;;0.00;0.00;;;4.50;90.70;;;;;;4989276;28;20047;-71
2023/01/16 12:02:19;;;;;;;0.10;0.10;;;4.40;90.70;;;;;;5008015;28;20053;-71
2023/01/16 12:08:20;;;;;;;0.00;0.00;;;4.40;90.70;;;;;;4995023;28;20070;-69
2023/01/16 12:11:07;;;;;;;0.00;0.00;;;4.50;90.70;;;;;;4990649;28;20333;-70
2023/01/16 12:16:42;;;;;;;0.00;0.00;;;4.40;90.70;;;;;;4981944;28;20050;-71
2023/01/16 12:19:39;;;;;;;0.03;0.03;;;4.40;90.70;;;;;;4987730;28;20397;-71
2023/01/16 12:22:17;;;;;;;0.00;0.00;;;4.50;90.70;;;;;;4970161;28;20760;-71
2023/01/16 12:24:52;;;;;;;0.00;0.00;;;4.40;90.70;;;;;;4987246;28;20038;-72
2023/01/16 12:27:28;;;;;;;0.00;0.00;;;4.40;90.70;;;;;;4977156;28;20523;-72
2023/01/16 12:29:59;;;;;;;0.00;0.00;;;4.50;90.70;;;;;;4987258;28;20531;-71
2023/01/16 12:32:45;;;;;;;0.08;0.08;;;4.50;90.80;;;;;;4984841;28;20080;-71
2023/01/16 12:35:31;;;;;;;0.00;0.00;;;4.50;90.80;;;;;;4986562;28;20689;-71
2023/01/16 12:38:09;;;;;;;0.00;0.00;;;4.50;90.90;;;;;;4987502;28;20038;-71
2023/01/16 12:40:49;;;;;;;0.00;0.00;;;4.60;90.90;;;;;;4988234;28;20125;-71
2023/01/16 12:43:34;;;;;;;0.00;0.00;;;4.60;91.00;;;;;;4986476;28;20051;-71
2023/01/16 12:46:02;;;;;;;0.00;0.00;;;4.60;90.90;;;;;;4953433;28;20045;-71
2023/01/16 12:48:43;;;;;;;0.00;0.00;;;4.60;91.00;;;;;;4986119;28;20096;-71
2023/01/16 12:51:30;;;;;;;0.20;0.20;;;4.70;90.90;;;;;;4988894;28;20719;-73
2023/01/16 12:54:32;;;;;;;0.00;0.00;;;4.70;90.90;;;;;;4971490;28;20038;-72
2023/01/16 12:57:01;;;;;;;;;;;4.70;90.90;;;;;;4952841;28;20823;-72
2023/01/16 12:59:42;;;;;;;0.00;0.00;;;4.70;90.90;;;;;;4988728;28;19930;-71
2023/01/16 13:02:43;;;;;;;0.00;0.00;;;4.80;90.90;;;;;;4988323;28;20046;-72
2023/01/16 13:05:18;;;;;;;0.00;0.00;;;4.80;91.00;;;;;;4967622;28;20064;-71
2023/01/16 13:08:19;;;;;;;0.05;0.05;;;4.80;90.90;;;;;;4989199;28;20053;-71
2023/01/16 13:13:44;;;;;;;0.10;0.10;;;4.90;91.00;;;;;;4988076;28;20046;-68
2023/01/16 13:16:19;;;;;;;0.20;0.20;;;4.90;91.00;;;;;;4984912;28;20091;-68
2023/01/16 13:19:02;;;;;;;0.00;0.00;;;5.00;91.00;;;;;;4989036;28;20062;-69
2023/01/16 13:21:33;;;;;;;0.00;0.00;;;5.00;91.10;;;;;;4988786;28;20050;-71
2023/01/16 13:24:30;;;;;;;0.00;0.00;;;5.00;91.10;;;;;;4952801;28;20046;-68
2023/01/16 13:27:03;;;;;;;0.00;0.00;;;5.00;91.20;;;;;;4987029;28;20108;-69
2023/01/16 13:29:36;;;;;;;0.00;0.00;;;5.00;91.20;;;;;;4971322;28;20050;-70
2023/01/16 13:32:15;;;;;;;0.00;0.00;;;5.10;91.20;;;;;;4988243;28;20089;-70
2023/01/16 13:34:52;;;;;;;0.10;0.10;;;5.00;91.10;;;;;;4988062;28;20588;-70
2023/01/16 13:37:38;;;;;;;0.00;0.00;;;5.00;91.20;;;;;;4970309;28;20042;-68
2023/01/16 13:40:23;;;;;;;0.00;0.00;;;5.00;91.30;;;;;;4988383;28;20044;-69
2023/01/16 13:42:53;;;;;;;0.00;0.00;;;4.90;91.50;;;;;;4969951;28;20791;-68
2023/01/16 13:45:48;;;;;;;0.00;0.00;;;4.90;91.50;;;;;;4985483;28;20046;-67
2023/01/16 13:48:17;;;;;;;0.00;0.00;;;4.90;91.50;;;;;;4987967;28;20467;-67
2023/01/16 13:50:51;;;;;;;0.10;0.10;;;5.00;91.70;;;;;;4983158;28;20061;-68
2023/01/16 13:53:17;;;;;;;0.20;0.20;;;5.00;91.90;;;;;;4984957;28;20160;-69
2023/01/16 13:55:43;;;;;;;0.05;0.05;;;5.10;91.80;;;;;;4983334;28;20125;-68
2023/01/16 13:58:26;;;;;;;0.20;0.20;;;5.00;91.60;;;;;;4986054;28;20739;-68
2023/01/16 14:01:00;;;;;;;0.00;0.00;;;4.90;91.50;;;;;;4985501;28;20145;-68
2023/01/16 14:03:33;;;;;;;0.00;0.00;;;4.90;91.50;;;;;;4951133;28;20411;-69
2023/01/16 14:06:10;;;;;;;0.00;0.00;;;4.90;91.50;;;;;;4986058;28;20038;-68
2023/01/16 14:09:11;;;;;;;0.00;0.00;;;5.00;91.60;;;;;;4985657;28;20057;-69
2023/01/16 14:11:58;;;;;;;0.00;0.00;;;5.00;91.60;;;;;;4986498;28;20066;-69
2023/01/16 14:17:20;;;;;;;0.00;0.00;;;5.00;91.50;;;;;;4985226;28;20060;-68
2023/01/16 14:19:59;;;;;;;0.35;0.35;;;5.00;91.40;;;;;;4987147;28;20050;-68
2023/01/16 14:25:07;;;;;;;0.00;0.00;;;5.10;91.40;;;;;;4986248;28;20411;-69
2023/01/16 14:27:38;;;;;;;0.00;0.00;;;5.10;91.30;;;;;;4986170;28;20055;-69
2023/01/16 14:30:13;;;;;;;0.00;0.00;;;5.10;91.40;;;;;;4985643;28;20042;-69
2023/01/16 14:32:50;;;;;;;0.17;0.17;;;5.10;91.40;;;;;;4984910;28;20112;-69
2023/01/16 14:35:20;;;;;;;0.00;0.00;;;5.10;91.40;;;;;;4968049;28;20053;-69
2023/01/16 14:37:59;;;;;;;0.20;0.20;;;5.10;91.40;;;;;;4985690;28;20104;-68
2023/01/16 14:55:13;;;;;;;0.10;0.10;;;5.20;91.40;;;;;;4985598;28;20403;-68